sensor_id;sensor_type;location;lat;lon;timestamp;pressure;altitude;pressure_sealevel;temperature;humidity
39769;BME280;38939;47.824;14.642;2024-03-17T00:00:33;97449.22;;;8.90;96.00
39769;BME280;38939;47.824;14.642;2024-03-17T00:01:34;97455.41;;;8.89;95.86
39769;BME280;38939;47.824;14.642;2024-03-17T00:02:34;97454.59;;;8.88;95.97
39769;BME280;38939;47.824;14.642;2024-03-17T00:03:35;97457.19;;;8.88;96.34
39769;BME280;38939;47.824;14.642;2024-03-17T00:04:35;97463.84;;;8.91;96.60
39769;BME280;38939;47.824;14.642;2024-03-17T00:05:37;97467.34;;;8.98;96.02
39769;BME280;38939;47.824;14.642;2024-03-17T00:06:38;97461.25;;;9.06;96.23
39769;BME280;38939;47.824;14.642;2024-03-17T00:07:39;97460.72;;;9.10;96.27
39769;BME280;38939;47.824;14.642;2024-03-17T00:08:40;97459.38;;;9.14;95.93
39769;BME280;38939;47.824;14.642;2024-03-17T00:09:41;97467.81;;;9.16;95.75
39769;BME280;38939;47.824;14.642;2024-03-17T00:10:42;97462.44;;;9.18;95.31
39769;BME280;38939;47.824;14.642;2024-03-17T00:11:42;97466.66;;;9.19;95.76
39769;BME280;38939;47.824;14.642;2024-03-17T00:12:44;97461.47;;;9.19;95.22
39769;BME280;38939;47.824;14.642;2024-03-17T00:13:45;97457.41;;;9.16;95.13
39769;BME280;38939;47.824;14.642;2024-03-17T00:14:45;97462.44;;;9.18;95.16
39769;BME280;38939;47.824;14.642;2024-03-17T00:15:47;97463.22;;;9.18;94.76
39769;BME280;38939;47.824;14.642;2024-03-17T00:16:48;97463.06;;;9.20;94.73
39769;BME280;38939;47.824;14.642;2024-03-17T00:17:49;97464.69;;;9.21;94.61
39769;BME280;38939;47.824;14.642;2024-03-17T00:18:49;97457.13;;;9.26;94.63
39769;BME280;38939;47.824;14.642;2024-03-17T00:19:50;97462.63;;;9.31;94.49
39769;BME280;38939;47.824;14.642;2024-03-17T00:20:51;97468.09;;;9.36;94.36
39769;BME280;38939;47.824;14.642;2024-03-17T00:21:52;97466.91;;;9.39;94.02
39769;BME280;38939;47.824;14.642;2024-03-17T00:22:52;97467.75;;;9.39;94.10
39769;BME280;38939;47.824;14.642;2024-03-17T00:23:53;97462.00;;;9.44;93.97
39769;BME280;38939;47.824;14.642;2024-03-17T00:24:54;97462.34;;;9.41;93.79
39769;BME280;38939;47.824;14.642;2024-03-17T00:25:54;97468.56;;;9.40;94.29
39769;BME280;38939;47.824;14.642;2024-03-17T00:26:55;97464.13;;;9.40;94.17
39769;BME280;38939;47.824;14.642;2024-03-17T00:27:56;97459.56;;;9.43;94.05
39769;BME280;38939;47.824;14.642;2024-03-17T00:28:58;97465.22;;;9.46;93.66
39769;BME280;38939;47.824;14.642;2024-03-17T00:29:59;97468.56;;;9.40;93.51
39769;BME280;38939;47.824;14.642;2024-03-17T00:30:59;97466.91;;;9.39;93.47
39769;BME280;38939;47.824;14.642;2024-03-17T00:32:01;97468.72;;;9.38;93.36
39769;BME280;38939;47.824;14.642;2024-03-17T00:33:01;97473.59;;;9.41;93.36
39769;BME280;38939;47.824;14.642;2024-03-17T00:34:02;97472.59;;;9.43;93.16
39769;BME280;38939;47.824;14.642;2024-03-17T00:35:05;97473.38;;;9.43;93.09
39769;BME280;38939;47.824;14.642;2024-03-17T00:36:06;97475.81;;;9.45;93.24
39769;BME280;38939;47.824;14.642;2024-03-17T00:37:07;97463.34;;;9.40;93.16
39769;BME280;38939;47.824;14.642;2024-03-17T00:38:08;97456.50;;;9.39;93.61
39769;BME280;38939;47.824;14.642;2024-03-17T00:39:12;97464.84;;;9.34;94.16
39769;BME280;38939;47.824;14.642;2024-03-17T00:40:12;97464.31;;;9.24;93.90
39769;BME280;38939;47.824;14.642;2024-03-17T00:41:13;97468.72;;;9.24;94.43
39769;BME280;38939;47.824;14.642;2024-03-17T00:42:14;97466.22;;;9.30;94.40
39769;BME280;38939;47.824;14.642;2024-03-17T00:43:15;97472.03;;;9.32;94.49
39769;BME280;38939;47.824;14.642;2024-03-17T00:44:16;97471.69;;;9.35;94.53
39769;BME280;38939;47.824;14.642;2024-03-17T00:45:16;97472.75;;;9.41;94.34
39769;BME280;38939;47.824;14.642;2024-03-17T00:46:20;97470.59;;;9.45;94.07
39769;BME280;38939;47.824;14.642;2024-03-17T00:47:21;97464.22;;;9.47;93.88
39769;BME280;38939;47.824;14.642;2024-03-17T00:48:21;97475.81;;;9.45;93.52
39769;BME280;38939;47.824;14.642;2024-03-17T00:49:22;97476.53;;;9.38;93.52
39769;BME280;38939;47.824;14.642;2024-03-17T00:50:23;97472.97;;;9.39;93.73
39769;BME280;38939;47.824;14.642;2024-03-17T00:51:24;97476.38;;;9.40;93.75
39769;BME280;38939;47.824;14.642;2024-03-17T00:52:24;97470.16;;;9.41;93.41
39769;BME280;38939;47.824;14.642;2024-03-17T00:53:25;97465.31;;;9.38;93.58
39769;BME280;38939;47.824;14.642;2024-03-17T00:54:26;97467.22;;;9.29;94.08
39769;BME280;38939;47.824;14.642;2024-03-17T00:55:26;97468.34;;;9.27;94.37
39769;BME280;38939;47.824;14.642;2024-03-17T00:56:27;97465.75;;;9.27;94.07
39769;BME280;38939;47.824;14.642;2024-03-17T00:57:28;97466.28;;;9.22;93.90
39769;BME280;38939;47.824;14.642;2024-03-17T00:58:29;97458.31;;;9.24;93.67
39769;BME280;38939;47.824;14.642;2024-03-17T00:59:30;97456.16;;;9.27;94.08
39769;BME280;38939;47.824;14.642;2024-03-17T01:00:30;97460.03;;;9.31;93.88
39769;BME280;38939;47.824;14.642;2024-03-17T01:01:33;97461.81;;;9.31;94.06
39769;BME280;38939;47.824;14.642;2024-03-17T01:02:34;97466.94;;;9.24;93.57
39769;BME280;38939;47.824;14.642;2024-03-17T01:03:34;97468.91;;;9.22;93.55
39769;BME280;38939;47.824;14.642;2024-03-17T01:04:35;97473.31;;;9.21;93.96
39769;BME280;38939;47.824;14.642;2024-03-17T01:05:37;97469.53;;;9.24;93.87
39769;BME280;38939;47.824;14.642;2024-03-17T01:06:42;97468.34;;;9.27;93.98
39769;BME280;38939;47.824;14.642;2024-03-17T01:07:43;97470.63;;;9.30;93.41
39769;BME280;38939;47.824;14.642;2024-03-17T01:08:44;97471.06;;;9.33;93.34
39769;BME280;38939;47.824;14.642;2024-03-17T01:09:46;97460.19;;;9.30;93.09
39769;BME280;38939;47.824;14.642;2024-03-17T01:10:47;97461.00;;;9.30;93.20
39769;BME280;38939;47.824;14.642;2024-03-17T01:11:51;97465.22;;;9.31;93.50
39769;BME280;38939;47.824;14.642;2024-03-17T01:12:52;97460.03;;;9.31;93.36
39769;BME280;38939;47.824;14.642;2024-03-17T01:13:53;97466.66;;;9.34;93.02
39769;BME280;38939;47.824;14.642;2024-03-17T01:14:53;97464.41;;;9.31;93.29
39769;BME280;38939;47.824;14.642;2024-03-17T01:15:54;97468.56;;;9.25;93.42
39769;BME280;38939;47.824;14.642;2024-03-17T01:16:55;97471.16;;;9.25;93.30
39769;BME280;38939;47.824;14.642;2024-03-17T01:17:56;97472.31;;;9.23;93.17
39769;BME280;38939;47.824;14.642;2024-03-17T01:18:57;97470.25;;;9.18;93.37
39769;BME280;38939;47.824;14.642;2024-03-17T01:19:57;97474.81;;;9.16;93.60
39769;BME280;38939;47.824;14.642;2024-03-17T01:20:59;97473.03;;;9.16;93.38
39769;BME280;38939;47.824;14.642;2024-03-17T01:22:00;97464.41;;;9.16;93.10
39769;BME280;38939;47.824;14.642;2024-03-17T01:23:01;97471.69;;;9.06;92.98
39769;BME280;38939;47.824;14.642;2024-03-17T01:24:02;97465.22;;;9.01;93.60
39769;BME280;38939;47.824;14.642;2024-03-17T01:25:03;97465.84;;;9.04;93.86
39769;BME280;38939;47.824;14.642;2024-03-17T01:26:04;97466.28;;;9.07;93.62
39769;BME280;38939;47.824;14.642;2024-03-17T01:27:04;97465.75;;;9.12;93.51
39769;BME280;38939;47.824;14.642;2024-03-17T01:28:05;97463.78;;;9.14;93.24
39769;BME280;38939;47.824;14.642;2024-03-17T01:29:06;97456.13;;;9.12;93.58
39769;BME280;38939;47.824;14.642;2024-03-17T01:30:10;97450.94;;;9.12;93.35
39769;BME280;38939;47.824;14.642;2024-03-17T01:31:11;97443.03;;;9.06;93.74
39769;BME280;38939;47.824;14.642;2024-03-17T01:32:11;97452.72;;;8.97;94.14
39769;BME280;38939;47.824;14.642;2024-03-17T01:33:12;97448.31;;;8.97;94.40
39769;BME280;38939;47.824;14.642;2024-03-17T01:34:13;97453.16;;;9.00;94.38
39769;BME280;38939;47.824;14.642;2024-03-17T01:35:14;97458.03;;;9.04;94.41
39769;BME280;38939;47.824;14.642;2024-03-17T01:36:15;97462.06;;;9.06;94.24
39769;BME280;38939;47.824;14.642;2024-03-17T01:37:15;97456.50;;;9.09;94.18
39769;BME280;38939;47.824;14.642;2024-03-17T01:38:16;97455.34;;;9.12;93.95
39769;BME280;38939;47.824;14.642;2024-03-17T01:39:17;97450.59;;;9.15;94.00
39769;BME280;38939;47.824;14.642;2024-03-17T01:40:19;97452.66;;;9.20;93.81
39769;BME280;38939;47.824;14.642;2024-03-17T01:41:20;97449.41;;;9.18;93.84
39769;BME280;38939;47.824;14.642;2024-03-17T01:42:20;97450.13;;;9.12;93.62
39769;BME280;38939;47.824;14.642;2024-03-17T01:43:21;97450.13;;;9.12;93.56
39769;BME280;38939;47.824;14.642;2024-03-17T01:44:26;97442.94;;;9.14;93.29
39769;BME280;38939;47.824;14.642;2024-03-17T01:45:28;97436.31;;;9.11;93.42
39769;BME280;38939;47.824;14.642;2024-03-17T01:46:29;97440.44;;;9.06;93.15
39769;BME280;38939;47.824;14.642;2024-03-17T01:47:30;97450.84;;;9.06;93.55
39769;BME280;38939;47.824;14.642;2024-03-17T01:48:30;97458.28;;;9.09;93.26
39769;BME280;38939;47.824;14.642;2024-03-17T01:49:31;97463.16;;;9.12;93.54
39769;BME280;38939;47.824;14.642;2024-03-17T01:50:35;97456.94;;;9.13;93.58
39769;BME280;38939;47.824;14.642;2024-03-17T01:51:36;97463.41;;;9.17;93.34
39769;BME280;38939;47.824;14.642;2024-03-17T01:52:36;97463.88;;;9.20;93.21
39769;BME280;38939;47.824;14.642;2024-03-17T01:53:37;97457.78;;;9.13;93.46
39769;BME280;38939;47.824;14.642;2024-03-17T01:54:40;97461.19;;;9.14;93.29
39769;BME280;38939;47.824;14.642;2024-03-17T01:55:42;97455.97;;;9.14;93.48
39769;BME280;38939;47.824;14.642;2024-03-17T01:56:43;97460.81;;;9.17;93.42
39769;BME280;38939;47.824;14.642;2024-03-17T01:57:44;97457.56;;;9.15;93.15
39769;BME280;38939;47.824;14.642;2024-03-17T01:58:45;97449.13;;;9.13;93.51
39769;BME280;38939;47.824;14.642;2024-03-17T01:59:46;97454.88;;;9.08;93.95
39769;BME280;38939;47.824;14.642;2024-03-17T02:00:47;97452.81;;;9.04;94.05
39769;BME280;38939;47.824;14.642;2024-03-17T02:01:47;97450.38;;;9.02;94.21
39769;BME280;38939;47.824;14.642;2024-03-17T02:02:48;97450.84;;;9.06;94.18
39769;BME280;38939;47.824;14.642;2024-03-17T02:03:49;97447.63;;;9.04;94.05
39769;BME280;38939;47.824;14.642;2024-03-17T02:04:50;97458.81;;;9.04;93.82
39769;BME280;38939;47.824;14.642;2024-03-17T02:05:51;97457.41;;;9.01;93.95
39769;BME280;38939;47.824;14.642;2024-03-17T02:06:51;97461.34;;;8.97;93.37
39769;BME280;38939;47.824;14.642;2024-03-17T02:07:52;97448.31;;;8.97;93.73
39769;BME280;38939;47.824;14.642;2024-03-17T02:08:53;97443.75;;;8.99;93.65
39769;BME280;38939;47.824;14.642;2024-03-17T02:09:56;97444.72;;;8.98;93.43
39769;BME280;38939;47.824;14.642;2024-03-17T02:10:57;97447.88;;;8.94;93.78
39769;BME280;38939;47.824;14.642;2024-03-17T02:11:57;97448.31;;;8.97;93.48
39769;BME280;38939;47.824;14.642;2024-03-17T02:12:59;97445.34;;;9.00;93.56
39769;BME280;38939;47.824;14.642;2024-03-17T02:14:00;97447.63;;;9.04;93.54
39769;BME280;38939;47.824;14.642;2024-03-17T02:15:06;97446.25;;;8.93;93.59
39769;BME280;38939;47.824;14.642;2024-03-17T02:16:07;97454.97;;;8.85;93.66
39769;BME280;38939;47.824;14.642;2024-03-17T02:17:08;97448.66;;;8.79;93.76
39769;BME280;38939;47.824;14.642;2024-03-17T02:18:09;97452.22;;;8.78;93.78
39769;BME280;38939;47.824;14.642;2024-03-17T02:19:10;97448.72;;;8.71;94.47
39769;BME280;38939;47.824;14.642;2024-03-17T02:20:11;97450.53;;;8.71;94.33
39769;BME280;38939;47.824;14.642;2024-03-17T02:21:14;97458.78;;;8.74;94.77
39769;BME280;38939;47.824;14.642;2024-03-17T02:22:15;97455.03;;;8.77;94.81
39769;BME280;38939;47.824;14.642;2024-03-17T02:23:17;97456.09;;;8.82;94.22
39769;BME280;38939;47.824;14.642;2024-03-17T02:24:19;97452.97;;;8.87;94.67
39769;BME280;38939;47.824;14.642;2024-03-17T02:25:20;97448.75;;;8.86;93.99
39769;BME280;38939;47.824;14.642;2024-03-17T02:26:21;97447.66;;;8.80;94.42
39769;BME280;38939;47.824;14.642;2024-03-17T02:27:22;97451.09;;;8.81;93.95
39769;BME280;38939;47.824;14.642;2024-03-17T02:28:22;97457.25;;;8.80;93.77
39769;BME280;38939;47.824;14.642;2024-03-17T02:29:23;97455.94;;;8.84;94.24
39769;BME280;38939;47.824;14.642;2024-03-17T02:30:24;97447.78;;;8.87;94.09
39769;BME280;38939;47.824;14.642;2024-03-17T02:31:25;97452.63;;;8.90;93.76
39769;BME280;38939;47.824;14.642;2024-03-17T02:32:25;97455.59;;;8.87;93.56
39769;BME280;38939;47.824;14.642;2024-03-17T02:33:28;97459.94;;;8.72;93.16
39769;BME280;38939;47.824;14.642;2024-03-17T02:34:28;97460.81;;;8.64;93.54
39769;BME280;38939;47.824;14.642;2024-03-17T02:35:29;97457.78;;;8.60;93.64
39769;BME280;38939;47.824;14.642;2024-03-17T02:36:30;97458.75;;;8.59;94.17
39769;BME280;38939;47.824;14.642;2024-03-17T02:37:30;97459.09;;;8.56;94.20
39769;BME280;38939;47.824;14.642;2024-03-17T02:38:31;97453.72;;;8.58;94.21
39769;BME280;38939;47.824;14.642;2024-03-17T02:39:50;97448.63;;;8.65;94.73
39769;BME280;38939;47.824;14.642;2024-03-17T02:40:51;97455.44;;;8.66;94.68
39769;BME280;38939;47.824;14.642;2024-03-17T02:41:52;97465.38;;;8.62;94.50
39769;BME280;38939;47.824;14.642;2024-03-17T02:42:53;97467.00;;;8.63;94.15
39769;BME280;38939;47.824;14.642;2024-03-17T02:43:54;97461.72;;;8.56;94.60
39769;BME280;38939;47.824;14.642;2024-03-17T02:44:55;97464.94;;;8.58;94.82
39769;BME280;38939;47.824;14.642;2024-03-17T02:45:56;97461.81;;;8.63;94.61
39769;BME280;38939;47.824;14.642;2024-03-17T02:46:58;97461.09;;;8.69;94.48
39769;BME280;38939;47.824;14.642;2024-03-17T02:47:59;97464.81;;;8.75;94.54
39769;BME280;38939;47.824;14.642;2024-03-17T02:49:00;97459.88;;;8.80;94.53
39769;BME280;38939;47.824;14.642;2024-03-17T02:50:01;97458.69;;;8.82;94.25
39769;BME280;38939;47.824;14.642;2024-03-17T02:51:02;97466.97;;;8.86;94.20
39769;BME280;38939;47.824;14.642;2024-03-17T02:52:03;97469.56;;;8.86;94.04
39769;BME280;38939;47.824;14.642;2024-03-17T02:53:04;97469.56;;;8.86;93.78
39769;BME280;38939;47.824;14.642;2024-03-17T02:54:05;97471.38;;;8.86;93.67
39769;BME280;38939;47.824;14.642;2024-03-17T02:55:06;97463.09;;;8.82;93.47
39769;BME280;38939;47.824;14.642;2024-03-17T02:56:07;97467.41;;;8.75;93.12
39769;BME280;38939;47.824;14.642;2024-03-17T02:57:07;97474.84;;;8.78;93.49
39769;BME280;38939;47.824;14.642;2024-03-17T02:58:08;97472.72;;;8.81;93.29
39769;BME280;38939;47.824;14.642;2024-03-17T02:59:09;97468.59;;;8.87;93.40
39769;BME280;38939;47.824;14.642;2024-03-17T03:00:10;97457.19;;;8.88;93.02
39769;BME280;38939;47.824;14.642;2024-03-17T03:01:13;97470.84;;;8.90;93.12
39769;BME280;38939;47.824;14.642;2024-03-17T03:02:15;97465.81;;;8.89;93.17
39769;BME280;38939;47.824;14.642;2024-03-17T03:03:16;97461.59;;;8.88;93.45
39769;BME280;38939;47.824;14.642;2024-03-17T03:04:16;97454.59;;;8.88;93.53
39769;BME280;38939;47.824;14.642;2024-03-17T03:05:17;97465.19;;;8.87;93.44
39769;BME280;38939;47.824;14.642;2024-03-17T03:06:18;97470.56;;;8.85;93.16
39769;BME280;38939;47.824;14.642;2024-03-17T03:07:19;97465.81;;;8.89;93.55
39769;BME280;38939;47.824;14.642;2024-03-17T03:08:20;97458.81;;;8.89;93.34
39769;BME280;38939;47.824;14.642;2024-03-17T03:09:21;97456.22;;;8.89;93.91
39769;BME280;38939;47.824;14.642;2024-03-17T03:10:43;97454.13;;;8.85;93.82
39769;BME280;38939;47.824;14.642;2024-03-17T03:11:44;97459.16;;;8.86;94.12
39769;BME280;38939;47.824;14.642;2024-03-17T03:12:45;97454.59;;;8.88;93.85
39769;BME280;38939;47.824;14.642;2024-03-17T03:13:46;97455.84;;;8.92;93.79
39769;BME280;38939;47.824;14.642;2024-03-17T03:14:47;97443.28;;;8.96;94.14
39769;BME280;38939;47.824;14.642;2024-03-17T03:15:48;97453.88;;;8.94;93.73
39769;BME280;38939;47.824;14.642;2024-03-17T03:16:48;97457.09;;;8.96;93.77
39769;BME280;38939;47.824;14.642;2024-03-17T03:17:50;97458.03;;;8.89;93.12
39769;BME280;38939;47.824;14.642;2024-03-17T03:18:51;97459.53;;;8.83;93.21
39769;BME280;38939;47.824;14.642;2024-03-17T03:19:52;97458.25;;;8.79;93.34
39769;BME280;38939;47.824;14.642;2024-03-17T03:20:52;97455.38;;;8.74;93.54
39769;BME280;38939;47.824;14.642;2024-03-17T03:21:53;97453.13;;;8.71;93.37
39769;BME280;38939;47.824;14.642;2024-03-17T03:22:54;97453.75;;;8.73;93.42
39769;BME280;38939;47.824;14.642;2024-03-17T03:23:54;97446.19;;;8.63;93.47
39769;BME280;38939;47.824;14.642;2024-03-17T03:24:55;97453.84;;;8.65;93.96
39769;BME280;38939;47.824;14.642;2024-03-17T03:25:56;97457.06;;;8.67;94.18
39769;BME280;38939;47.824;14.642;2024-03-17T03:26:57;97456.53;;;8.71;94.04
39769;BME280;38939;47.824;14.642;2024-03-17T03:27:58;97461.38;;;8.74;93.72
39769;BME280;38939;47.824;14.642;2024-03-17T03:28:59;97466.88;;;8.79;93.46
39769;BME280;38939;47.824;14.642;2024-03-17T03:30:00;97463.72;;;8.84;93.51
39769;BME280;38939;47.824;14.642;2024-03-17T03:31:01;97465.38;;;8.85;93.62
39769;BME280;38939;47.824;14.642;2024-03-17T03:32:03;97461.41;;;8.89;93.17
39769;BME280;38939;47.824;14.642;2024-03-17T03:33:04;97460.25;;;8.92;93.01
39769;BME280;38939;47.824;14.642;2024-03-17T03:34:05;97462.38;;;8.88;93.17
39769;BME280;38939;47.824;14.642;2024-03-17T03:35:08;97460.78;;;8.87;93.20
39769;BME280;38939;47.824;14.642;2024-03-17T03:36:10;97466.34;;;8.84;92.53
39769;BME280;38939;47.824;14.642;2024-03-17T03:37:11;97472.88;;;8.80;92.52
39769;BME280;38939;47.824;14.642;2024-03-17T03:38:13;97475.84;;;8.77;92.65
39769;BME280;38939;47.824;14.642;2024-03-17T03:39:14;97468.84;;;8.77;92.40
39769;BME280;38939;47.824;14.642;2024-03-17T03:40:15;97463.09;;;8.82;92.04
39769;BME280;38939;47.824;14.642;2024-03-17T03:41:18;97458.91;;;8.81;92.03
39769;BME280;38939;47.824;14.642;2024-03-17T03:42:19;97463.63;;;8.77;92.29
39769;BME280;38939;47.824;14.642;2024-03-17T03:43:20;97469.06;;;8.68;92.02
39769;BME280;38939;47.824;14.642;2024-03-17T03:44:20;97469.78;;;8.61;92.24
39769;BME280;38939;47.824;14.642;2024-03-17T03:45:21;97468.44;;;8.66;92.49
39769;BME280;38939;47.824;14.642;2024-03-17T03:46:22;97465.03;;;8.65;92.70
39769;BME280;38939;47.824;14.642;2024-03-17T03:47:22;97471.69;;;8.68;93.03
39769;BME280;38939;47.824;14.642;2024-03-17T03:48:23;97470.97;;;8.74;93.05
39769;BME280;38939;47.824;14.642;2024-03-17T03:49:26;97471.59;;;8.76;93.14
39769;BME280;38939;47.824;14.642;2024-03-17T03:50:27;97465.59;;;8.75;93.03
39769;BME280;38939;47.824;14.642;2024-03-17T03:51:28;97466.25;;;8.77;93.10
39769;BME280;38939;47.824;14.642;2024-03-17T03:52:29;97466.06;;;8.79;93.49
39769;BME280;38939;47.824;14.642;2024-03-17T03:53:30;97466.06;;;8.79;93.23
39769;BME280;38939;47.824;14.642;2024-03-17T03:54:33;97453.22;;;8.77;93.67
39769;BME280;38939;47.824;14.642;2024-03-17T03:55:34;97461.19;;;8.76;93.33
39769;BME280;38939;47.824;14.642;2024-03-17T03:56:34;97461.56;;;8.73;93.65
39769;BME280;38939;47.824;14.642;2024-03-17T03:57:37;97461.19;;;8.61;93.55
39769;BME280;38939;47.824;14.642;2024-03-17T03:58:38;97465.28;;;8.55;93.51
39769;BME280;38939;47.824;14.642;2024-03-17T03:59:40;97468.88;;;8.54;93.96
39769;BME280;38939;47.824;14.642;2024-03-17T04:00:40;97472.13;;;8.56;93.64
39769;BME280;38939;47.824;14.642;2024-03-17T04:01:41;97465.28;;;8.55;93.36
39769;BME280;38939;47.824;14.642;2024-03-17T04:02:42;97469.69;;;8.55;93.66
39769;BME280;38939;47.824;14.642;2024-03-17T04:03:43;97473.25;;;8.54;94.06
39769;BME280;38939;47.824;14.642;2024-03-17T04:04:43;97465.28;;;8.55;93.73
39769;BME280;38939;47.824;14.642;2024-03-17T04:05:44;97466.38;;;8.61;93.98
39769;BME280;38939;47.824;14.642;2024-03-17T04:06:45;97459.38;;;8.61;94.13
39769;BME280;38939;47.824;14.642;2024-03-17T04:07:46;97471.06;;;8.66;94.07
39769;BME280;38939;47.824;14.642;2024-03-17T04:08:47;97462.28;;;8.67;94.50
39769;BME280;38939;47.824;14.642;2024-03-17T04:09:48;97471.22;;;8.64;94.18
39769;BME280;38939;47.824;14.642;2024-03-17T04:10:49;97473.47;;;8.67;94.21
39769;BME280;38939;47.824;14.642;2024-03-17T04:11:49;97471.84;;;8.66;94.27
39769;BME280;38939;47.824;14.642;2024-03-17T04:12:51;97476.88;;;8.68;94.14
39769;BME280;38939;47.824;14.642;2024-03-17T04:13:52;97473.66;;;8.66;93.72
39769;BME280;38939;47.824;14.642;2024-03-17T04:14:52;97471.06;;;8.66;94.17
39769;BME280;38939;47.824;14.642;2024-03-17T04:15:54;97477.69;;;8.68;93.94
39769;BME280;38939;47.824;14.642;2024-03-17T04:16:57;97476.25;;;8.66;93.98
39769;BME280;38939;47.824;14.642;2024-03-17T04:17:58;97473.00;;;8.64;93.67
39769;BME280;38939;47.824;14.642;2024-03-17T04:18:59;97476.25;;;8.66;94.10
39769;BME280;38939;47.824;14.642;2024-03-17T04:20:00;97472.22;;;8.63;94.43
39769;BME280;38939;47.824;14.642;2024-03-17T04:21:01;97461.81;;;8.63;94.31
39769;BME280;38939;47.824;14.642;2024-03-17T04:22:03;97467.47;;;8.67;94.08
39769;BME280;38939;47.824;14.642;2024-03-17T04:23:04;97476.53;;;8.71;94.39
39769;BME280;38939;47.824;14.642;2024-03-17T04:24:05;97469.19;;;8.74;94.12
39769;BME280;38939;47.824;14.642;2024-03-17T04:25:06;97472.88;;;8.80;94.23
39769;BME280;38939;47.824;14.642;2024-03-17T04:26:07;97473.50;;;8.82;94.03
39769;BME280;38939;47.824;14.642;2024-03-17T04:27:10;97461.28;;;8.82;93.53
39769;BME280;38939;47.824;14.642;2024-03-17T04:28:11;97470.09;;;8.81;93.25
39769;BME280;38939;47.824;14.642;2024-03-17T04:29:12;97472.53;;;8.83;92.78
39769;BME280;38939;47.824;14.642;2024-03-17T04:30:12;97473.00;;;8.87;92.85
39769;BME280;38939;47.824;14.642;2024-03-17T04:31:14;97477.03;;;8.89;92.46
39769;BME280;38939;47.824;14.642;2024-03-17T04:32:15;97473.44;;;8.90;92.60
39769;BME280;38939;47.824;14.642;2024-03-17T04:33:16;97468.84;;;8.92;92.67
39769;BME280;38939;47.824;14.642;2024-03-17T04:34:17;97465.13;;;8.95;92.33
39769;BME280;38939;47.824;14.642;2024-03-17T04:35:18;97459.38;;;8.99;92.26
39769;BME280;38939;47.824;14.642;2024-03-17T04:36:18;97462.69;;;8.93;91.68
39769;BME280;38939;47.824;14.642;2024-03-17T04:37:19;97467.59;;;8.88;91.71
39769;BME280;38939;47.824;14.642;2024-03-17T04:38:20;97461.94;;;8.85;91.90
39769;BME280;38939;47.824;14.642;2024-03-17T04:39:20;97474.31;;;8.82;92.29
39769;BME280;38939;47.824;14.642;2024-03-17T04:40:21;97458.91;;;8.81;92.06
39769;BME280;38939;47.824;14.642;2024-03-17T04:41:23;97466.69;;;8.81;92.32
39769;BME280;38939;47.824;14.642;2024-03-17T04:42:23;97465.88;;;8.80;92.70
39769;BME280;38939;47.824;14.642;2024-03-17T04:43:24;97460.09;;;8.70;92.18
39769;BME280;38939;47.824;14.642;2024-03-17T04:44:25;97455.91;;;8.69;92.45
39769;BME280;38939;47.824;14.642;2024-03-17T04:45:26;97457.34;;;8.72;92.88
39769;BME280;38939;47.824;14.642;2024-03-17T04:46:27;97459.13;;;8.71;92.69
39769;BME280;38939;47.824;14.642;2024-03-17T04:47:27;97462.06;;;8.68;92.99
39769;BME280;38939;47.824;14.642;2024-03-17T04:48:28;97468.28;;;8.67;93.31
39769;BME280;38939;47.824;14.642;2024-03-17T04:49:29;97470.06;;;8.67;93.01
39769;BME280;38939;47.824;14.642;2024-03-17T04:50:30;97464.34;;;8.71;93.16
39769;BME280;38939;47.824;14.642;2024-03-17T04:51:32;97461.91;;;8.70;92.69
39769;BME280;38939;47.824;14.642;2024-03-17T04:52:34;97466.16;;;8.71;92.94
39769;BME280;38939;47.824;14.642;2024-03-17T04:53:34;97467.47;;;8.67;92.88
39769;BME280;38939;47.824;14.642;2024-03-17T04:54:35;97456.78;;;8.61;92.81
39769;BME280;38939;47.824;14.642;2024-03-17T04:55:36;97457.00;;;8.52;92.78
39769;BME280;38939;47.824;14.642;2024-03-17T04:56:36;97459.97;;;8.49;92.87
39769;BME280;38939;47.824;14.642;2024-03-17T04:57:37;97461.47;;;8.43;92.59
39769;BME280;38939;47.824;14.642;2024-03-17T04:58:38;97463.75;;;8.38;93.24
39769;BME280;38939;47.824;14.642;2024-03-17T04:59:39;97466.69;;;8.43;93.22
39769;BME280;38939;47.824;14.642;2024-03-17T05:00:40;97466.31;;;8.46;93.42
39769;BME280;38939;47.824;14.642;2024-03-17T05:01:41;97468.41;;;8.51;93.31
39769;BME280;38939;47.824;14.642;2024-03-17T05:02:42;97462.50;;;8.57;92.93
39769;BME280;38939;47.824;14.642;2024-03-17T05:03:43;97462.16;;;8.60;92.58
39769;BME280;38939;47.824;14.642;2024-03-17T05:04:44;97466.22;;;8.63;92.40
39769;BME280;38939;47.824;14.642;2024-03-17T05:05:45;97460.66;;;8.66;92.47
39769;BME280;38939;47.824;14.642;2024-03-17T05:06:45;97464.25;;;8.65;92.56
39769;BME280;38939;47.824;14.642;2024-03-17T05:07:50;97465.22;;;8.64;91.64
39769;BME280;38939;47.824;14.642;2024-03-17T05:08:51;97464.97;;;8.50;91.11
39769;BME280;38939;47.824;14.642;2024-03-17T05:09:51;97461.47;;;8.43;91.39
39769;BME280;38939;47.824;14.642;2024-03-17T05:11:02;97460.69;;;8.43;91.62
39769;BME280;38939;47.824;14.642;2024-03-17T05:12:06;97461.31;;;8.45;91.76
39769;BME280;38939;47.824;14.642;2024-03-17T05:13:07;97469.75;;;8.47;91.28
39769;BME280;38939;47.824;14.642;2024-03-17T05:14:08;97469.38;;;8.50;91.56
39769;BME280;38939;47.824;14.642;2024-03-17T05:15:09;97466.63;;;8.51;91.31
39769;BME280;38939;47.824;14.642;2024-03-17T05:16:10;97469.53;;;8.48;91.08
39769;BME280;38939;47.824;14.642;2024-03-17T05:17:11;97479.16;;;8.48;90.62
39769;BME280;38939;47.824;14.642;2024-03-17T05:18:12;97481.59;;;8.49;90.81
39769;BME280;38939;47.824;14.642;2024-03-17T05:19:12;97471.66;;;8.53;90.76
39769;BME280;38939;47.824;14.642;2024-03-17T05:20:14;97477.31;;;8.56;90.62
39769;BME280;38939;47.824;14.642;2024-03-17T05:21:15;97477.75;;;8.60;90.45
39769;BME280;38939;47.824;14.642;2024-03-17T05:22:16;97486.03;;;8.64;90.21
39769;BME280;38939;47.824;14.642;2024-03-17T05:23:16;97481.47;;;8.66;90.40
39769;BME280;38939;47.824;14.642;2024-03-17T05:24:17;97481.28;;;8.67;90.33